sensor_id;sensor_type;location;lat;lon;timestamp;P1;durP1;ratioP1;P2;durP2;ratioP2
69910;SDS011;63555;49.920;17.868;2023-03-04T00:00:49;36.80;;;11.03;;
69910;SDS011;63555;49.920;17.868;2023-03-04T00:05:50;33.07;;;10.53;;
69910;SDS011;63555;49.920;17.868;2023-03-04T00:10:50;36.80;;;10.87;;
69910;SDS011;63555;49.920;17.868;2023-03-04T00:15:51;29.30;;;9.80;;
69910;SDS011;63555;49.920;17.868;2023-03-04T00:20:51;33.77;;;10.00;;
69910;SDS011;63555;49.920;17.868;2023-03-04T00:25:52;29.13;;;9.03;;
69910;SDS011;63555;49.920;17.868;2023-03-04T00:30:52;29.90;;;8.77;;
69910;SDS011;63555;49.920;17.868;2023-03-04T00:35:52;39.57;;;10.73;;
69910;SDS011;63555;49.920;17.868;2023-03-04T00:40:53;41.77;;;12.13;;
69910;SDS011;63555;49.920;17.868;2023-03-04T00:45:53;34.23;;;10.13;;
69910;SDS011;63555;49.920;17.868;2023-03-04T00:50:53;30.10;;;9.27;;
69910;SDS011;63555;49.920;17.868;2023-03-04T00:55:54;31.50;;;9.13;;
69910;SDS011;63555;49.920;17.868;2023-03-04T01:00:54;32.30;;;11.30;;
69910;SDS011;63555;49.920;17.868;2023-03-04T01:05:55;31.60;;;8.80;;
69910;SDS011;63555;49.920;17.868;2023-03-04T01:10:55;33.53;;;9.73;;
69910;SDS011;63555;49.920;17.868;2023-03-04T01:15:55;34.83;;;10.53;;
69910;SDS011;63555;49.920;17.868;2023-03-04T01:20:56;26.90;;;9.13;;
69910;SDS011;63555;49.920;17.868;2023-03-04T01:25:57;29.27;;;8.30;;
69910;SDS011;63555;49.920;17.868;2023-03-04T01:30:57;30.47;;;9.70;;
69910;SDS011;63555;49.920;17.868;2023-03-04T01:35:58;30.60;;;9.47;;
69910;SDS011;63555;49.920;17.868;2023-03-04T01:40:58;29.97;;;9.47;;
69910;SDS011;63555;49.920;17.868;2023-03-04T01:45:58;37.73;;;10.03;;
69910;SDS011;63555;49.920;17.868;2023-03-04T01:50:59;25.57;;;9.80;;
69910;SDS011;63555;49.920;17.868;2023-03-04T01:56:08;27.02;;;9.57;;
69910;SDS011;63555;49.920;17.868;2023-03-04T02:01:29;30.73;;;10.80;;
69910;SDS011;63555;49.920;17.868;2023-03-04T02:06:29;38.37;;;9.90;;
69910;SDS011;63555;49.920;17.868;2023-03-04T02:11:30;26.27;;;9.75;;
69910;SDS011;63555;49.920;17.868;2023-03-04T02:16:31;41.00;;;11.13;;
69910;SDS011;63555;49.920;17.868;2023-03-04T02:21:32;37.43;;;10.17;;
69910;SDS011;63555;49.920;17.868;2023-03-04T02:26:33;32.35;;;10.75;;
69910;SDS011;63555;49.920;17.868;2023-03-04T02:31:38;36.50;;;11.10;;
69910;SDS011;63555;49.920;17.868;2023-03-04T02:36:40;42.60;;;12.07;;
69910;SDS011;63555;49.920;17.868;2023-03-04T02:41:42;39.20;;;12.75;;
69910;SDS011;63555;49.920;17.868;2023-03-04T02:46:43;36.07;;;11.57;;
69910;SDS011;63555;49.920;17.868;2023-03-04T02:51:44;40.70;;;12.73;;
69910;SDS011;63555;49.920;17.868;2023-03-04T02:56:48;47.63;;;12.90;;
69910;SDS011;63555;49.920;17.868;2023-03-04T03:01:50;40.08;;;11.48;;
69910;SDS011;63555;49.920;17.868;2023-03-04T03:06:51;35.27;;;12.37;;
69910;SDS011;63555;49.920;17.868;2023-03-04T03:11:51;48.08;;;14.18;;
69910;SDS011;63555;49.920;17.868;2023-03-04T03:16:51;40.87;;;12.73;;
69910;SDS011;63555;49.920;17.868;2023-03-04T03:21:52;49.07;;;14.07;;
69910;SDS011;63555;49.920;17.868;2023-03-04T03:26:52;46.07;;;13.03;;
69910;SDS011;63555;49.920;17.868;2023-03-04T03:31:52;44.67;;;13.33;;
69910;SDS011;63555;49.920;17.868;2023-03-04T03:36:53;44.17;;;14.13;;
69910;SDS011;63555;49.920;17.868;2023-03-04T03:41:53;46.93;;;14.43;;
69910;SDS011;63555;49.920;17.868;2023-03-04T03:46:53;49.03;;;14.27;;
69910;SDS011;63555;49.920;17.868;2023-03-04T03:51:54;47.03;;;13.13;;
69910;SDS011;63555;49.920;17.868;2023-03-04T03:56:54;55.67;;;15.50;;
69910;SDS011;63555;49.920;17.868;2023-03-04T04:01:54;45.43;;;13.23;;
69910;SDS011;63555;49.920;17.868;2023-03-04T04:06:55;46.73;;;15.00;;
69910;SDS011;63555;49.920;17.868;2023-03-04T04:11:55;34.37;;;12.70;;
69910;SDS011;63555;49.920;17.868;2023-03-04T04:16:55;47.43;;;15.33;;
69910;SDS011;63555;49.920;17.868;2023-03-04T04:21:56;39.10;;;11.77;;
69910;SDS011;63555;49.920;17.868;2023-03-04T04:26:56;39.60;;;13.63;;
69910;SDS011;63555;49.920;17.868;2023-03-04T04:31:57;32.37;;;10.83;;
69910;SDS011;63555;49.920;17.868;2023-03-04T04:36:57;42.55;;;12.68;;
69910;SDS011;63555;49.920;17.868;2023-03-04T04:41:58;40.17;;;12.27;;
69910;SDS011;63555;49.920;17.868;2023-03-04T04:46:58;47.33;;;14.00;;
69910;SDS011;63555;49.920;17.868;2023-03-04T04:51:58;38.50;;;11.43;;
69910;SDS011;63555;49.920;17.868;2023-03-04T04:56:59;71.97;;;16.20;;
69910;SDS011;63555;49.920;17.868;2023-03-04T05:01:59;62.07;;;15.17;;
69910;SDS011;63555;49.920;17.868;2023-03-04T05:06:59;72.23;;;17.07;;
69910;SDS011;63555;49.920;17.868;2023-03-04T05:11:59;47.53;;;15.03;;
69910;SDS011;63555;49.920;17.868;2023-03-04T05:17:00;65.73;;;18.03;;
69910;SDS011;63555;49.920;17.868;2023-03-04T05:22:00;68.93;;;19.97;;
69910;SDS011;63555;49.920;17.868;2023-03-04T05:27:01;90.57;;;21.63;;
69910;SDS011;63555;49.920;17.868;2023-03-04T05:32:01;58.80;;;18.67;;
69910;SDS011;63555;49.920;17.868;2023-03-04T05:37:02;84.13;;;18.37;;
69910;SDS011;63555;49.920;17.868;2023-03-04T05:42:02;72.37;;;18.30;;
69910;SDS011;63555;49.920;17.868;2023-03-04T05:47:03;81.40;;;20.40;;
69910;SDS011;63555;49.920;17.868;2023-03-04T05:52:03;81.27;;;19.00;;
69910;SDS011;63555;49.920;17.868;2023-03-04T05:57:03;82.73;;;20.80;;
69910;SDS011;63555;49.920;17.868;2023-03-04T06:02:04;71.33;;;19.37;;
69910;SDS011;63555;49.920;17.868;2023-03-04T06:07:04;79.40;;;21.50;;
69910;SDS011;63555;49.920;17.868;2023-03-04T06:12:04;78.73;;;20.33;;
69910;SDS011;63555;49.920;17.868;2023-03-04T06:17:05;49.57;;;17.60;;
69910;SDS011;63555;49.920;17.868;2023-03-04T06:22:06;78.97;;;18.77;;
69910;SDS011;63555;49.920;17.868;2023-03-04T06:27:07;65.88;;;17.45;;
69910;SDS011;63555;49.920;17.868;2023-03-04T06:32:07;69.10;;;18.23;;
69910;SDS011;63555;49.920;17.868;2023-03-04T06:37:07;77.03;;;19.40;;
69910;SDS011;63555;49.920;17.868;2023-03-04T06:42:08;64.85;;;16.38;;
69910;SDS011;63555;49.920;17.868;2023-03-04T06:47:08;65.70;;;17.42;;
69910;SDS011;63555;49.920;17.868;2023-03-04T06:52:09;54.83;;;15.40;;
69910;SDS011;63555;49.920;17.868;2023-03-04T06:57:11;68.50;;;17.48;;
69910;SDS011;63555;49.920;17.868;2023-03-04T07:02:12;74.22;;;18.88;;
69910;SDS011;63555;49.920;17.868;2023-03-04T07:07:13;51.58;;;16.08;;
69910;SDS011;63555;49.920;17.868;2023-03-04T07:12:13;69.30;;;16.60;;
69910;SDS011;63555;49.920;17.868;2023-03-04T07:17:13;60.55;;;14.88;;
69910;SDS011;63555;49.920;17.868;2023-03-04T07:22:14;41.00;;;13.83;;
69910;SDS011;63555;49.920;17.868;2023-03-04T07:27:14;44.40;;;14.77;;
69910;SDS011;63555;49.920;17.868;2023-03-04T07:32:14;46.00;;;12.90;;
69910;SDS011;63555;49.920;17.868;2023-03-04T07:37:15;48.80;;;14.33;;
69910;SDS011;63555;49.920;17.868;2023-03-04T07:42:15;40.27;;;12.93;;
69910;SDS011;63555;49.920;17.868;2023-03-04T07:47:16;39.53;;;13.27;;
69910;SDS011;63555;49.920;17.868;2023-03-04T07:52:16;37.00;;;12.70;;
69910;SDS011;63555;49.920;17.868;2023-03-04T07:57:16;27.07;;;10.07;;
69910;SDS011;63555;49.920;17.868;2023-03-04T08:02:17;39.53;;;13.83;;
69910;SDS011;63555;49.920;17.868;2023-03-04T08:07:17;32.57;;;11.60;;
69910;SDS011;63555;49.920;17.868;2023-03-04T08:12:17;38.70;;;12.60;;
69910;SDS011;63555;49.920;17.868;2023-03-04T08:17:18;35.43;;;12.37;;
69910;SDS011;63555;49.920;17.868;2023-03-04T08:22:18;36.50;;;12.93;;
69910;SDS011;63555;49.920;17.868;2023-03-04T08:27:19;29.97;;;11.17;;
69910;SDS011;63555;49.920;17.868;2023-03-04T08:32:19;34.90;;;12.13;;
69910;SDS011;63555;49.920;17.868;2023-03-04T08:37:20;30.33;;;11.60;;
69910;SDS011;63555;49.920;17.868;2023-03-04T08:42:20;29.20;;;11.03;;
69910;SDS011;63555;49.920;17.868;2023-03-04T08:47:21;27.53;;;10.37;;
69910;SDS011;63555;49.920;17.868;2023-03-04T08:52:21;28.73;;;10.90;;
69910;SDS011;63555;49.920;17.868;2023-03-04T08:57:22;29.20;;;11.33;;
69910;SDS011;63555;49.920;17.868;2023-03-04T09:02:22;30.13;;;12.00;;
69910;SDS011;63555;49.920;17.868;2023-03-04T09:07:22;30.60;;;12.10;;
69910;SDS011;63555;49.920;17.868;2023-03-04T09:12:23;30.03;;;11.23;;
69910;SDS011;63555;49.920;17.868;2023-03-04T09:17:23;26.97;;;12.37;;
69910;SDS011;63555;49.920;17.868;2023-03-04T09:22:24;30.73;;;12.33;;
69910;SDS011;63555;49.920;17.868;2023-03-04T09:27:26;29.03;;;13.07;;
69910;SDS011;63555;49.920;17.868;2023-03-04T09:32:26;25.80;;;12.67;;
69910;SDS011;63555;49.920;17.868;2023-03-04T09:37:27;29.27;;;13.38;;
69910;SDS011;63555;49.920;17.868;2023-03-04T09:42:30;31.50;;;14.77;;
69910;SDS011;63555;49.920;17.868;2023-03-04T09:47:35;26.48;;;13.27;;
69910;SDS011;63555;49.920;17.868;2023-03-04T09:52:42;29.60;;;13.93;;
69910;SDS011;63555;49.920;17.868;2023-03-04T09:57:54;29.80;;;13.75;;
69910;SDS011;63555;49.920;17.868;2023-03-04T10:13:37;28.60;;;14.30;;
69910;SDS011;63555;49.920;17.868;2023-03-04T10:18:52;28.67;;;15.10;;
69910;SDS011;63555;49.920;17.868;2023-03-04T10:23:59;27.25;;;14.38;;
69910;SDS011;63555;49.920;17.868;2023-03-04T10:29:04;26.80;;;13.63;;
69910;SDS011;63555;49.920;17.868;2023-03-04T10:34:08;27.02;;;13.77;;
69910;SDS011;63555;49.920;17.868;2023-03-04T10:39:11;28.30;;;12.95;;
69910;SDS011;63555;49.920;17.868;2023-03-04T10:44:17;27.80;;;13.87;;
69910;SDS011;63555;49.920;17.868;2023-03-04T10:49:18;28.63;;;13.43;;
69910;SDS011;63555;49.920;17.868;2023-03-04T10:54:21;26.92;;;12.57;;
69910;SDS011;63555;49.920;17.868;2023-03-04T10:59:42;31.02;;;13.13;;
69910;SDS011;63555;49.920;17.868;2023-03-04T11:04:55;26.03;;;11.07;;
69910;SDS011;63555;49.920;17.868;2023-03-04T11:10:05;26.15;;;11.75;;
69910;SDS011;63555;49.920;17.868;2023-03-04T11:15:18;24.80;;;11.10;;
69910;SDS011;63555;49.920;17.868;2023-03-04T11:26:22;25.38;;;11.20;;
69910;SDS011;63555;49.920;17.868;2023-03-04T11:31:15;25.60;;;10.53;;
69910;SDS011;63555;49.920;17.868;2023-03-04T11:41:45;27.80;;;11.17;;
69910;SDS011;63555;49.920;17.868;2023-03-04T11:58:09;25.63;;;10.30;;
69910;SDS011;63555;49.920;17.868;2023-03-04T12:19:10;21.65;;;9.65;;
69910;SDS011;63555;49.920;17.868;2023-03-04T12:29:34;23.50;;;10.57;;
69910;SDS011;63555;49.920;17.868;2023-03-04T12:40:22;20.48;;;9.57;;
69910;SDS011;63555;49.920;17.868;2023-03-04T12:45:38;19.75;;;9.27;;
69910;SDS011;63555;49.920;17.868;2023-03-04T12:55:43;23.88;;;9.68;;
69910;SDS011;63555;49.920;17.868;2023-03-04T13:12:04;21.52;;;8.18;;
69910;SDS011;63555;49.920;17.868;2023-03-04T13:27:48;16.58;;;6.72;;
69910;SDS011;63555;49.920;17.868;2023-03-04T13:32:50;16.90;;;8.53;;
69910;SDS011;63555;49.920;17.868;2023-03-04T13:37:57;24.17;;;9.70;;
69910;SDS011;63555;49.920;17.868;2023-03-04T13:53:54;17.88;;;7.22;;
69910;SDS011;63555;49.920;17.868;2023-03-04T14:09:27;16.98;;;7.68;;
69910;SDS011;63555;49.920;17.868;2023-03-04T14:14:31;19.77;;;8.85;;
69910;SDS011;63555;49.920;17.868;2023-03-04T14:19:43;22.83;;;9.03;;
69910;SDS011;63555;49.920;17.868;2023-03-04T14:35:27;21.80;;;9.40;;
69910;SDS011;63555;49.920;17.868;2023-03-04T14:40:33;22.27;;;8.90;;
69910;SDS011;63555;49.920;17.868;2023-03-04T14:45:38;22.57;;;8.27;;
69910;SDS011;63555;49.920;17.868;2023-03-04T14:50:48;26.83;;;9.95;;
69910;SDS011;63555;49.920;17.868;2023-03-04T14:56:08;21.13;;;9.48;;
69910;SDS011;63555;49.920;17.868;2023-03-04T15:01:16;20.77;;;9.05;;
69910;SDS011;63555;49.920;17.868;2023-03-04T15:06:21;23.25;;;10.73;;
69910;SDS011;63555;49.920;17.868;2023-03-04T15:11:24;18.50;;;7.40;;
69910;SDS011;63555;49.920;17.868;2023-03-04T15:16:27;21.00;;;8.18;;
69910;SDS011;63555;49.920;17.868;2023-03-04T15:21:48;15.63;;;7.68;;
69910;SDS011;63555;49.920;17.868;2023-03-04T15:26:50;17.25;;;8.05;;
69910;SDS011;63555;49.920;17.868;2023-03-04T15:31:50;17.13;;;7.63;;
69910;SDS011;63555;49.920;17.868;2023-03-04T15:36:51;17.43;;;8.87;;
69910;SDS011;63555;49.920;17.868;2023-03-04T15:41:52;22.20;;;9.07;;
69910;SDS011;63555;49.920;17.868;2023-03-04T15:46:55;20.13;;;8.40;;
69910;SDS011;63555;49.920;17.868;2023-03-04T15:51:56;18.67;;;8.33;;
69910;SDS011;63555;49.920;17.868;2023-03-04T15:56:57;23.40;;;9.00;;
69910;SDS011;63555;49.920;17.868;2023-03-04T16:01:59;25.17;;;9.02;;
69910;SDS011;63555;49.920;17.868;2023-03-04T16:06:59;33.33;;;12.90;;
69910;SDS011;63555;49.920;17.868;2023-03-04T16:12:00;22.70;;;9.53;;
69910;SDS011;63555;49.920;17.868;2023-03-04T16:17:00;25.45;;;8.85;;
69910;SDS011;63555;49.920;17.868;2023-03-04T16:22:01;19.13;;;8.47;;
69910;SDS011;63555;49.920;17.868;2023-03-04T16:27:01;19.57;;;8.90;;
69910;SDS011;63555;49.920;17.868;2023-03-04T16:32:02;22.33;;;10.43;;
69910;SDS011;63555;49.920;17.868;2023-03-04T16:37:04;18.00;;;8.20;;
69910;SDS011;63555;49.920;17.868;2023-03-04T16:42:12;23.45;;;8.38;;
69910;SDS011;63555;49.920;17.868;2023-03-04T16:47:15;21.13;;;8.47;;
69910;SDS011;63555;49.920;17.868;2023-03-04T16:52:26;21.13;;;8.83;;
69910;SDS011;63555;49.920;17.868;2023-03-04T16:57:29;25.00;;;10.93;;
69910;SDS011;63555;49.920;17.868;2023-03-04T17:02:30;21.40;;;9.47;;
69910;SDS011;63555;49.920;17.868;2023-03-04T17:07:30;19.10;;;7.60;;
69910;SDS011;63555;49.920;17.868;2023-03-04T17:12:31;17.00;;;7.40;;
69910;SDS011;63555;49.920;17.868;2023-03-04T17:17:31;17.13;;;7.33;;
69910;SDS011;63555;49.920;17.868;2023-03-04T17:22:32;14.65;;;6.78;;
69910;SDS011;63555;49.920;17.868;2023-03-04T17:27:33;14.37;;;7.53;;
69910;SDS011;63555;49.920;17.868;2023-03-04T17:32:34;20.92;;;8.10;;
69910;SDS011;63555;49.920;17.868;2023-03-04T17:37:35;17.27;;;7.07;;
69910;SDS011;63555;49.920;17.868;2023-03-04T17:42:36;17.20;;;6.60;;
69910;SDS011;63555;49.920;17.868;2023-03-04T17:47:36;16.07;;;7.17;;
69910;SDS011;63555;49.920;17.868;2023-03-04T17:52:37;15.52;;;6.53;;
69910;SDS011;63555;49.920;17.868;2023-03-04T17:57:37;14.10;;;6.90;;
69910;SDS011;63555;49.920;17.868;2023-03-04T18:02:38;18.33;;;8.27;;
69910;SDS011;63555;49.920;17.868;2023-03-04T18:07:38;15.97;;;7.10;;
69910;SDS011;63555;49.920;17.868;2023-03-04T18:12:39;22.87;;;9.53;;
69910;SDS011;63555;49.920;17.868;2023-03-04T18:17:39;23.10;;;10.53;;
69910;SDS011;63555;49.920;17.868;2023-03-04T18:22:41;18.80;;;7.97;;
69910;SDS011;63555;49.920;17.868;2023-03-04T18:27:42;18.05;;;8.68;;
69910;SDS011;63555;49.920;17.868;2023-03-04T18:32:43;16.07;;;7.07;;
69910;SDS011;63555;49.920;17.868;2023-03-04T18:37:44;18.35;;;7.20;;
69910;SDS011;63555;49.920;17.868;2023-03-04T18:42:44;12.13;;;5.47;;
69910;SDS011;63555;49.920;17.868;2023-03-04T18:47:46;14.13;;;6.13;;
69910;SDS011;63555;49.920;17.868;2023-03-04T18:52:49;12.93;;;6.10;;
69910;SDS011;63555;49.920;17.868;2023-03-04T18:57:51;13.48;;;6.70;;
69910;SDS011;63555;49.920;17.868;2023-03-04T19:02:58;26.02;;;10.77;;
69910;SDS011;63555;49.920;17.868;2023-03-04T19:08:10;17.43;;;8.00;;
69910;SDS011;63555;49.920;17.868;2023-03-04T19:13:11;14.13;;;7.10;;
69910;SDS011;63555;49.920;17.868;2023-03-04T19:18:11;16.13;;;7.17;;
69910;SDS011;63555;49.920;17.868;2023-03-04T19:23:12;14.70;;;6.47;;
69910;SDS011;63555;49.920;17.868;2023-03-04T19:28:13;14.70;;;5.75;;
69910;SDS011;63555;49.920;17.868;2023-03-04T19:33:13;14.37;;;5.97;;
69910;SDS011;63555;49.920;17.868;2023-03-04T19:38:14;21.10;;;8.77;;
69910;SDS011;63555;49.920;17.868;2023-03-04T19:43:14;17.63;;;8.20;;
69910;SDS011;63555;49.920;17.868;2023-03-04T19:48:14;20.37;;;8.33;;
69910;SDS011;63555;49.920;17.868;2023-03-04T19:53:15;19.10;;;7.97;;
69910;SDS011;63555;49.920;17.868;2023-03-04T19:58:17;21.48;;;8.55;;
69910;SDS011;63555;49.920;17.868;2023-03-04T20:03:18;17.75;;;7.80;;
69910;SDS011;63555;49.920;17.868;2023-03-04T20:08:19;15.73;;;7.30;;
69910;SDS011;63555;49.920;17.868;2023-03-04T20:13:19;17.63;;;6.70;;
69910;SDS011;63555;49.920;17.868;2023-03-04T20:18:20;18.50;;;8.13;;
69910;SDS011;63555;49.920;17.868;2023-03-04T20:23:21;16.42;;;8.55;;
69910;SDS011;63555;49.920;17.868;2023-03-04T20:28:22;17.73;;;7.67;;
69910;SDS011;63555;49.920;17.868;2023-03-04T20:33:23;14.23;;;6.87;;
69910;SDS011;63555;49.920;17.868;2023-03-04T20:38:24;16.00;;;6.03;;
69910;SDS011;63555;49.920;17.868;2023-03-04T20:43:25;12.52;;;6.00;;
69910;SDS011;63555;49.920;17.868;2023-03-04T20:48:27;13.85;;;6.70;;
69910;SDS011;63555;49.920;17.868;2023-03-04T20:53:27;14.30;;;6.07;;
69910;SDS011;63555;49.920;17.868;2023-03-04T20:58:28;13.43;;;6.07;;
69910;SDS011;63555;49.920;17.868;2023-03-04T21:03:28;16.60;;;7.77;;
69910;SDS011;63555;49.920;17.868;2023-03-04T21:08:29;15.30;;;6.67;;
69910;SDS011;63555;49.920;17.868;2023-03-04T21:13:29;14.17;;;7.03;;
69910;SDS011;63555;49.920;17.868;2023-03-04T21:18:30;17.67;;;7.30;;
69910;SDS011;63555;49.920;17.868;2023-03-04T21:23:30;18.03;;;6.97;;
69910;SDS011;63555;49.920;17.868;2023-03-04T21:28:30;16.33;;;7.33;;
69910;SDS011;63555;49.920;17.868;2023-03-04T21:33:32;19.27;;;8.40;;
69910;SDS011;63555;49.920;17.868;2023-03-04T21:38:35;17.08;;;7.72;;
69910;SDS011;63555;49.920;17.868;2023-03-04T21:43:35;17.60;;;7.10;;
69910;SDS011;63555;49.920;17.868;2023-03-04T21:48:36;17.17;;;7.53;;
69910;SDS011;63555;49.920;17.868;2023-03-04T21:53:36;19.37;;;6.10;;
69910;SDS011;63555;49.920;17.868;2023-03-04T21:58:37;12.37;;;6.37;;
69910;SDS011;63555;49.920;17.868;2023-03-04T22:03:41;17.00;;;6.97;;
69910;SDS011;63555;49.920;17.868;2023-03-04T22:08:42;17.73;;;7.03;;
69910;SDS011;63555;49.920;17.868;2023-03-04T22:13:43;15.60;;;6.40;;
69910;SDS011;63555;49.920;17.868;2023-03-04T22:18:43;16.45;;;6.63;;
69910;SDS011;63555;49.920;17.868;2023-03-04T22:23:44;18.73;;;6.73;;
69910;SDS011;63555;49.920;17.868;2023-03-04T22:28:44;17.17;;;6.78;;
69910;SDS011;63555;49.920;17.868;2023-03-04T22:33:46;14.30;;;6.67;;
69910;SDS011;63555;49.920;17.868;2023-03-04T22:38:46;11.57;;;5.38;;
69910;SDS011;63555;49.920;17.868;2023-03-04T22:43:47;14.13;;;5.80;;
69910;SDS011;63555;49.920;17.868;2023-03-04T22:48:49;14.03;;;5.43;;
69910;SDS011;63555;49.920;17.868;2023-03-04T22:53:50;14.95;;;6.28;;
69910;SDS011;63555;49.920;17.868;2023-03-04T22:58:51;15.20;;;6.73;;
69910;SDS011;63555;49.920;17.868;2023-03-04T23:03:51;26.33;;;9.80;;
69910;SDS011;63555;49.920;17.868;2023-03-04T23:08:51;32.27;;;11.00;;
69910;SDS011;63555;49.920;17.868;2023-03-04T23:13:52;17.20;;;7.00;;
69910;SDS011;63555;49.920;17.868;2023-03-04T23:18:54;17.02;;;5.88;;
69910;SDS011;63555;49.920;17.868;2023-03-04T23:23:54;12.90;;;5.30;;
69910;SDS011;63555;49.920;17.868;2023-03-04T23:28:55;12.73;;;5.43;;
69910;SDS011;63555;49.920;17.868;2023-03-04T23:33:56;15.37;;;6.43;;
69910;SDS011;63555;49.920;17.868;2023-03-04T23:38:57;27.23;;;8.20;;
69910;SDS011;63555;49.920;17.868;2023-03-04T23:43:58;23.85;;;8.80;;
69910;SDS011;63555;49.920;17.868;2023-03-04T23:48:59;21.73;;;8.00;;
69910;SDS011;63555;49.920;17.868;2023-03-04T23:53:59;21.87;;;7.80;;
69910;SDS011;63555;49.920;17.868;2023-03-04T23:59:00;14.10;;;5.03;;
